Time;durP1;ratioP1;P1;durP2;ratioP2;P2;SDS_P1;SDS_P2;PMS_P1;PMS_P2;Temp;Humidity;BMP_temperature;BMP_pressure;BME280_temperature;BME280_humidity;BME280_pressure;Samples;Min_cycle;Max_cycle;Signal;HPM_P1;HPM_P2
2022/08/02 00:00:34;;;;;;;6.83;4.03;;;24.10;53.80;;;;;;5010501;28;20209;-92
2022/08/02 00:03:04;;;;;;;10.53;5.13;;;24.10;54.70;;;;;;5003111;28;20281;-93
2022/08/02 00:05:34;;;;;;;6.80;3.77;;;24.10;54.50;;;;;;4985724;28;20197;-91
2022/08/02 00:08:02;;;;;;;6.57;3.97;;;24.10;54.90;;;;;;4991048;28;20202;-92
2022/08/02 00:10:32;;;;;;;12.13;5.73;;;24.10;55.10;;;;;;4988723;28;20266;-94
2022/08/02 00:13:00;;;;;;;10.53;5.70;;;24.10;55.40;;;;;;4985694;28;20206;-92
2022/08/02 00:15:29;;;;;;;11.07;4.80;;;24.10;55.80;;;;;;4989906;28;20201;-91
2022/08/02 00:18:00;;;;;;;9.93;5.37;;;24.10;56.00;;;;;;4990581;28;20206;-94
2022/08/02 00:20:33;;;;;;;12.50;5.97;;;24.10;56.00;;;;;;4984811;28;20240;-93
2022/08/02 00:23:00;;;;;;;13.20;6.77;;;24.10;56.40;;;;;;4986428;28;20206;-93
2022/08/02 00:25:28;;;;;;;13.70;5.97;;;24.10;56.10;;;;;;4987870;28;20213;-95
2022/08/02 00:27:58;;;;;;;11.27;6.37;;;24.10;56.20;;;;;;4985747;28;20692;-93
2022/08/02 00:30:25;;;;;;;12.43;7.00;;;24.10;56.70;;;;;;4991016;28;20635;-92
2022/08/02 00:33:07;;;;;;;20.63;9.53;;;24.10;56.80;;;;;;4985149;28;20213;-93
2022/08/02 00:35:36;;;;;;;14.80;7.50;;;24.10;58.00;;;;;;4986376;28;20208;-93
2022/08/02 00:38:05;;;;;;;17.57;8.47;;;24.10;57.40;;;;;;4990580;28;20202;-93
2022/08/02 00:40:34;;;;;;;14.90;8.57;;;24.10;57.90;;;;;;4984363;28;20209;-92
2022/08/02 00:43:03;;;;;;;21.20;10.43;;;24.10;57.80;;;;;;4984926;28;20206;-92
2022/08/02 00:45:30;;;;;;;14.47;7.97;;;24.10;57.90;;;;;;4997812;28;20256;-93
2022/08/02 00:47:57;;;;;;;15.73;8.97;;;24.10;57.90;;;;;;5000346;28;20209;-92
2022/08/02 00:50:26;;;;;;;12.37;8.07;;;24.10;58.40;;;;;;5004251;28;20555;-93
2022/08/02 00:52:53;;;;;;;18.33;9.13;;;24.10;58.60;;;;;;4989364;28;20213;-93
2022/08/02 00:55:21;;;;;;;17.30;9.33;;;24.10;58.60;;;;;;4992969;28;20213;-92
2022/08/02 00:57:48;;;;;;;23.90;10.87;;;24.10;58.80;;;;;;5006550;28;20202;-93
2022/08/02 01:00:21;;;;;;;14.87;8.73;;;24.10;58.60;;;;;;4992265;28;20213;-92
2022/08/02 01:03:17;;;;;;;16.33;8.63;;;24.10;59.40;;;;;;4989244;28;20244;-93
2022/08/02 01:05:49;;;;;;;15.07;8.43;;;24.10;60.10;;;;;;4985151;28;20220;-93
2022/08/02 01:08:16;;;;;;;16.93;9.43;;;24.10;59.00;;;;;;4984966;28;20237;-92
2022/08/02 01:10:44;;;;;;;17.47;9.53;;;24.00;58.90;;;;;;4981620;28;20209;-91
2022/08/02 01:13:21;;;;;;;24.40;11.97;;;24.00;58.90;;;;;;4986901;28;20619;-91
2022/08/02 01:16:17;;;;;;;21.20;10.53;;;23.90;59.60;;;;;;4999577;28;20229;-90
2022/08/02 01:18:53;;;;;;;17.20;9.40;;;23.90;59.40;;;;;;4994597;28;20272;-93
2022/08/02 01:21:55;;;;;;;16.67;8.87;;;23.90;59.30;;;;;;4990892;28;20709;-92
2022/08/02 01:24:41;;;;;;;13.87;8.33;;;23.80;59.90;;;;;;4984706;28;20212;-93
2022/08/02 01:27:19;;;;;;;16.73;9.30;;;23.80;59.60;;;;;;4987337;28;20237;-93
2022/08/02 01:29:53;;;;;;;13.37;8.27;;;23.80;59.40;;;;;;4989965;28;20323;-93
2022/08/02 01:32:28;;;;;;;13.60;8.30;;;23.70;59.60;;;;;;4989773;28;21093;-91
2022/08/02 01:34:59;;;;;;;14.23;8.20;;;23.70;59.90;;;;;;4990251;28;20239;-93
2022/08/02 01:37:33;;;;;;;14.17;8.87;;;23.70;59.80;;;;;;4975477;28;20211;-93
2022/08/02 01:40:05;;;;;;;15.77;9.43;;;23.60;59.90;;;;;;4969432;28;20202;-92
2022/08/02 01:45:54;;;;;;;20.57;10.90;;;23.60;61.00;;;;;;4977609;22;20281;-93
2022/08/02 01:54:12;;;;;;;16.73;9.93;;;23.50;60.30;;;;;;4974008;28;20206;-92
2022/08/02 01:56:40;;;;;;;20.77;10.57;;;23.50;60.60;;;;;;4985584;28;20209;-92
2022/08/02 01:59:11;;;;;;;18.53;10.67;;;23.40;60.50;;;;;;4983635;28;20296;-92
2022/08/02 02:01:41;;;;;;;17.67;9.77;;;23.40;60.80;;;;;;4988078;28;20229;-92
2022/08/02 02:04:10;;;;;;;15.90;9.57;;;23.30;61.10;;;;;;4986037;28;20207;-92
2022/08/02 02:06:39;;;;;;;19.60;10.07;;;23.30;61.40;;;;;;4992703;28;20241;-92
2022/08/02 02:09:08;;;;;;;13.17;8.27;;;23.30;61.60;;;;;;4986673;28;20738;-92
2022/08/02 02:11:35;;;;;;;19.63;10.30;;;23.30;61.30;;;;;;4988989;28;20362;-92
2022/08/02 02:14:07;;;;;;;20.13;10.87;;;23.20;61.10;;;;;;4986301;28;20642;-92
2022/08/02 02:17:10;;;;;;;20.73;11.03;;;23.20;61.50;;;;;;4985456;28;20209;-93
2022/08/02 02:19:51;;;;;;;18.70;10.40;;;23.10;62.20;;;;;;4985970;28;20226;-91
2022/08/02 02:22:30;;;;;;;21.47;11.30;;;23.10;61.20;;;;;;4987288;28;20319;-92
2022/08/02 02:27:48;;;;;;;14.90;10.17;;;23.10;61.50;;;;;;4987333;28;20569;-93
2022/08/02 02:30:17;;;;;;;17.00;9.50;;;23.00;62.00;;;;;;5008081;22;20230;-92
2022/08/02 02:35:57;;;;;;;15.03;9.23;;;22.90;62.70;;;;;;5025436;23;20229;-92
2022/08/02 02:38:30;;;;;;;16.80;10.40;;;22.90;63.10;;;;;;5004987;28;20212;-94
2022/08/02 02:41:01;;;;;;;15.77;9.10;;;22.90;62.20;;;;;;5011413;28;20201;-92
2022/08/02 02:44:01;;;;;;;19.33;10.53;;;22.80;63.30;;;;;;5005588;28;20290;-93
2022/08/02 02:47:07;;;;;;;19.03;11.07;;;22.80;63.70;;;;;;5003837;28;20206;-94
2022/08/02 02:49:36;;;;;;;22.57;10.63;;;22.70;62.50;;;;;;5023748;28;20194;-93
2022/08/02 02:52:13;;;;;;;12.43;9.07;;;22.70;62.70;;;;;;5012960;28;20205;-93
2022/08/02 02:54:43;;;;;;;18.80;10.63;;;22.70;63.80;;;;;;5008078;28;20194;-92
2022/08/02 02:57:53;;;;;;;21.70;10.53;;;22.70;62.90;;;;;;5004312;28;20206;-93
2022/08/02 03:03:04;;;;;;;19.40;10.83;;;22.60;63.10;;;;;;5010427;28;20231;-92
2022/08/02 03:05:31;;;;;;;14.57;10.03;;;22.60;62.80;;;;;;5004188;28;20741;-94
2022/08/02 03:08:01;;;;;;;21.50;10.70;;;22.60;63.80;;;;;;5012034;28;20202;-94
2022/08/02 03:10:28;;;;;;;21.87;12.50;;;22.50;63.40;;;;;;5005852;28;20194;-93
2022/08/02 03:12:58;;;;;;;22.23;12.00;;;22.50;63.20;;;;;;5009384;28;20208;-91
2022/08/02 03:15:27;;;;;;;21.03;11.20;;;22.50;63.50;;;;;;5006682;28;20197;-93
2022/08/02 03:18:36;;;;;;;21.97;12.40;;;22.50;63.60;;;;;;5005467;28;20223;-93
2022/08/02 03:21:07;;;;;;;24.53;11.93;;;22.50;64.60;;;;;;5003554;28;20613;-93
2022/08/02 03:23:35;;;;;;;24.77;13.13;;;22.50;63.80;;;;;;5005254;28;20280;-93
2022/08/02 03:26:02;;;;;;;20.47;10.93;;;22.40;64.00;;;;;;4997955;28;20210;-93
2022/08/02 03:28:32;;;;;;;23.07;11.90;;;22.40;63.70;;;;;;5000106;28;20292;-94
2022/08/02 03:31:00;;;;;;;21.93;11.77;;;22.40;63.90;;;;;;5004519;28;20576;-93
2022/08/02 03:33:28;;;;;;;21.50;11.83;;;22.40;64.10;;;;;;5005582;28;20205;-92
2022/08/02 03:36:02;;;;;;;20.77;10.93;;;22.40;64.00;;;;;;5004735;28;20937;-92
2022/08/02 03:38:32;;;;;;;20.43;11.23;;;22.30;64.60;;;;;;5012499;28;20257;-93
2022/08/02 03:41:01;;;;;;;24.23;12.47;;;22.30;64.30;;;;;;5021644;28;20202;-92
2022/08/02 03:43:29;;;;;;;22.27;13.23;;;22.20;64.30;;;;;;5024572;28;20217;-93
2022/08/02 03:45:59;;;;;;;30.27;14.83;;;22.20;64.50;;;;;;5012773;28;20206;-93
2022/08/02 03:49:03;;;;;;;22.47;12.90;;;22.10;64.60;;;;;;5007055;28;20638;-93
2022/08/02 03:51:33;;;;;;;15.03;9.97;;;22.10;65.80;;;;;;5007231;28;20197;-93
2022/08/02 03:54:02;;;;;;;17.17;11.03;;;22.00;65.00;;;;;;5008975;28;20202;-91
2022/08/02 03:56:30;;;;;;;19.13;11.37;;;22.00;65.10;;;;;;5008565;28;21385;-92
2022/08/02 03:59:08;;;;;;;20.27;11.37;;;21.90;64.90;;;;;;5021547;28;20198;-91
2022/08/02 04:01:38;;;;;;;18.10;12.40;;;21.90;65.80;;;;;;5027934;28;20217;-93
2022/08/02 04:04:06;;;;;;;15.87;10.53;;;21.90;65.70;;;;;;5017055;28;20202;-93
2022/08/02 04:06:38;;;;;;;19.67;10.67;;;21.80;65.20;;;;;;5014290;28;20259;-92
2022/08/02 04:09:06;;;;;;;16.40;11.00;;;21.80;65.60;;;;;;5015327;28;20204;-93
2022/08/02 04:11:33;;;;;;;19.63;12.60;;;21.80;65.60;;;;;;5032619;28;20224;-91
2022/08/02 04:14:03;;;;;;;21.97;12.47;;;21.70;65.70;;;;;;5027727;28;20194;-93
2022/08/02 04:16:39;;;;;;;20.93;11.40;;;21.70;66.10;;;;;;5007731;28;20315;-92
2022/08/02 04:19:31;;;;;;;12.27;8.90;;;21.60;66.30;;;;;;5001833;28;20229;-93
2022/08/02 04:22:03;;;;;;;19.90;11.40;;;21.60;66.60;;;;;;5005019;28;20725;-92
2022/08/02 04:27:25;;;;;;;22.83;12.00;;;21.60;66.50;;;;;;5009743;23;20323;-94
2022/08/02 04:29:54;;;;;;;14.90;9.50;;;21.60;66.50;;;;;;5009622;23;20645;-92
2022/08/02 04:32:23;;;;;;;15.33;9.60;;;21.60;66.30;;;;;;5002448;28;20197;-92
2022/08/02 04:37:34;;;;;;;16.20;9.43;;;21.50;66.40;;;;;;5022906;22;20227;-93
2022/08/02 04:40:02;;;;;;;25.13;12.13;;;21.50;66.70;;;;;;4948570;28;20614;-92
2022/08/02 04:42:31;;;;;;;20.17;10.63;;;21.50;66.60;;;;;;4947506;28;21921;-93
2022/08/02 04:44:59;;;;;;;16.70;9.20;;;21.50;66.90;;;;;;4948568;28;20218;-93
2022/08/02 04:47:26;;;;;;;19.30;10.53;;;21.40;66.70;;;;;;4952032;28;20203;-93
2022/08/02 04:52:21;;;;;;;22.63;11.27;;;21.40;67.90;;;;;;5008221;28;20295;-93
2022/08/02 04:54:52;;;;;;;22.93;11.63;;;21.40;67.20;;;;;;5007357;28;20233;-93
2022/08/02 05:00:06;;;;;;;20.63;10.50;;;21.30;67.50;;;;;;5001547;28;20213;-94
2022/08/02 05:02:34;;;;;;;18.67;9.50;;;21.30;67.80;;;;;;5005102;28;20229;-93
2022/08/02 05:05:02;;;;;;;13.47;8.17;;;21.30;67.70;;;;;;5004275;28;20232;-92
2022/08/02 05:07:30;;;;;;;21.50;9.77;;;21.30;67.90;;;;;;5006338;28;20256;-93
2022/08/02 05:10:07;;;;;;;12.57;8.07;;;21.30;68.10;;;;;;5006018;28;20598;-93
2022/08/02 05:12:37;;;;;;;18.83;9.70;;;21.20;68.40;;;;;;5010475;28;20297;-92
2022/08/02 05:15:05;;;;;;;18.93;10.00;;;21.20;69.50;;;;;;5007569;28;20198;-92
2022/08/02 05:20:48;;;;;;;16.93;8.73;;;21.20;69.60;;;;;;5003868;28;20212;-95
2022/08/02 05:23:27;;;;;;;15.87;8.10;;;21.20;69.30;;;;;;5013790;28;20240;-92
2022/08/02 05:25:56;;;;;;;16.93;8.70;;;21.10;69.90;;;;;;5009968;28;20602;-92
2022/08/02 05:28:24;;;;;;;12.00;7.77;;;21.10;69.70;;;;;;5006306;28;20209;-94
2022/08/02 05:30:51;;;;;;;21.30;9.30;;;21.10;69.40;;;;;;5010798;28;20202;-93
2022/08/02 05:33:18;;;;;;;24.23;11.43;;;21.10;69.80;;;;;;5004412;28;20264;-93
2022/08/02 05:35:46;;;;;;;18.83;9.70;;;21.10;69.80;;;;;;5005373;28;20906;-94
2022/08/02 05:38:15;;;;;;;18.30;9.23;;;21.20;70.30;;;;;;5010722;28;20209;-94
2022/08/02 05:40:45;;;;;;;20.47;10.40;;;21.10;70.10;;;;;;5009386;28;20293;-93
2022/08/02 05:43:15;;;;;;;17.63;9.03;;;21.20;70.50;;;;;;5007502;28;20229;-93
2022/08/02 05:45:53;;;;;;;12.17;7.00;;;21.20;70.60;;;;;;5011023;28;20646;-93
2022/08/02 05:48:24;;;;;;;17.47;8.47;;;21.20;71.60;;;;;;5009175;28;20202;-96
2022/08/02 05:50:55;;;;;;;11.30;7.27;;;21.20;71.20;;;;;;5013240;28;20721;-93
2022/08/02 05:53:56;;;;;;;18.50;9.50;;;21.20;71.80;;;;;;5012442;28;20201;-94
2022/08/02 05:56:40;;;;;;;15.70;8.53;;;21.20;72.80;;;;;;5008614;28;20200;-93
2022/08/02 05:59:48;;;;;;;15.23;9.23;;;21.20;71.80;;;;;;5020272;28;20205;-93
2022/08/02 06:02:49;;;;;;;21.57;9.70;;;21.20;73.20;;;;;;5021256;28;20206;-94
2022/08/02 06:05:21;;;;;;;16.87;9.17;;;21.30;73.00;;;;;;5020018;28;20185;-92
2022/08/02 06:07:51;;;;;;;16.97;8.87;;;21.30;72.60;;;;;;5008575;28;20621;-94
2022/08/02 06:10:23;;;;;;;12.03;8.00;;;21.30;72.50;;;;;;5014649;28;20630;-94
2022/08/02 06:12:54;;;;;;;17.00;8.40;;;21.30;72.80;;;;;;5009703;28;20193;-94
2022/08/02 06:15:34;;;;;;;16.63;8.53;;;21.40;72.70;;;;;;5011163;28;20229;-93
2022/08/02 06:18:04;;;;;;;22.97;9.73;;;21.40;72.90;;;;;;5009143;28;20649;-93
2022/08/02 06:20:35;;;;;;;21.27;10.13;;;21.40;72.70;;;;;;5012544;28;20248;-93
2022/08/02 06:23:45;;;;;;;;;;;;;;;;;;;;;
2022/08/02 06:26:44;;;;;;;18.03;8.57;;;21.50;73.00;;;;;;4986028;28;20213;-93
2022/08/02 06:32:56;;;;;;;14.97;8.07;;;21.60;73.40;;;;;;5021568;23;20713;-93
2022/08/02 06:36:28;;;;;;;47.67;19.33;;;21.60;74.20;;;;;;5008490;22;20297;-91
2022/08/02 06:39:19;;;;;;;13.17;7.33;;;21.60;73.80;;;;;;5003519;28;20205;-93
2022/08/02 06:42:02;;;;;;;17.23;8.97;;;21.70;73.50;;;;;;5030224;28;20212;-92
2022/08/02 06:44:29;;;;;;;20.53;9.47;;;21.70;74.20;;;;;;5027539;28;20261;-94
2022/08/02 06:49:52;;;;;;;16.70;7.97;;;21.80;75.20;;;;;;5000273;28;20206;-93
2022/08/02 06:55:52;;;;;;;16.70;7.90;;;21.90;74.10;;;;;;5052307;23;20236;-92
2022/08/02 07:08:41;;;;;;;12.97;7.07;;;22.20;72.90;;;;;;5739617;22;20269;-93
2022/08/02 07:16:56;;;;;;;16.87;7.83;;;22.50;73.00;;;;;;5172237;22;20337;-93
2022/08/02 07:19:27;;;;;;;14.80;6.77;;;22.50;73.20;;;;;;5019144;28;20203;-95
2022/08/02 07:22:00;;;;;;;9.80;5.00;;;22.70;72.40;;;;;;5011218;28;20210;-93
2022/08/02 07:30:18;;;;;;;16.87;6.53;;;22.90;71.90;;;;;;5011912;28;20250;-92
2022/08/02 07:33:01;;;;;;;12.43;6.30;;;22.90;71.10;;;;;;5021220;28;20772;-96
2022/08/02 07:35:30;;;;;;;9.90;5.63;;;23.00;71.30;;;;;;5030743;28;20216;-92
2022/08/02 07:38:49;;;;;;;10.13;4.47;;;23.00;70.90;;;;;;5031227;28;20201;-93
2022/08/02 07:41:19;;;;;;;6.53;4.47;;;23.10;71.20;;;;;;4956561;28;20579;-96
2022/08/02 07:43:47;;;;;;;8.33;4.87;;;23.10;70.70;;;;;;5025471;28;20289;-94
2022/08/02 07:46:17;;;;;;;9.67;5.40;;;23.10;70.40;;;;;;5032453;28;20534;-95
2022/08/02 07:48:47;;;;;;;10.07;4.50;;;23.20;70.70;;;;;;5032304;28;20209;-95
2022/08/02 07:51:49;;;;;;;11.23;5.20;;;23.20;70.50;;;;;;5033406;28;20283;-94
2022/08/02 07:54:19;;;;;;;9.03;4.30;;;23.30;70.50;;;;;;5006588;28;20622;-93
2022/08/02 07:56:47;;;;;;;8.87;4.87;;;23.30;70.10;;;;;;5020299;28;20521;-93
2022/08/02 07:59:19;;;;;;;7.10;4.70;;;23.30;69.60;;;;;;5033228;28;20218;-93
2022/08/02 08:01:48;;;;;;;10.60;4.90;;;23.40;69.80;;;;;;5031648;28;20569;-93
2022/08/02 08:04:16;;;;;;;8.87;4.50;;;23.50;69.80;;;;;;5031542;28;20315;-92
2022/08/02 08:07:03;;;;;;;10.43;5.77;;;23.50;69.50;;;;;;5033627;28;20205;-92
2022/08/02 08:09:32;;;;;;;9.67;4.97;;;23.60;69.60;;;;;;5031842;28;20200;-92
2022/08/02 08:14:55;;;;;;;7.03;3.93;;;23.70;69.50;;;;;;5032738;28;20345;-94
2022/08/02 08:17:22;;;;;;;13.03;4.93;;;23.80;68.80;;;;;;5021589;28;20240;-94
2022/08/02 08:20:05;;;;;;;12.03;5.77;;;23.90;68.90;;;;;;5012017;28;20232;-93
2022/08/02 08:22:33;;;;;;;14.50;5.60;;;24.00;68.50;;;;;;5012170;28;20202;-94
2022/08/02 08:25:02;;;;;;;8.30;4.53;;;24.00;68.20;;;;;;5010898;28;20939;-92
2022/08/02 08:27:34;;;;;;;12.20;5.23;;;24.10;68.10;;;;;;5011512;28;20217;-94
2022/08/02 08:30:01;;;;;;;7.10;4.13;;;24.20;68.00;;;;;;5031004;28;20215;-93
2022/08/02 08:35:23;;;;;;;6.50;3.50;;;24.40;67.60;;;;;;4987595;28;20209;-91
2022/08/02 08:37:51;;;;;;;4.13;2.50;;;24.40;67.30;;;;;;5000621;28;20201;-92
2022/08/02 08:40:27;;;;;;;7.60;3.33;;;24.50;66.90;;;;;;5013114;28;20198;-93
2022/08/02 08:42:54;;;;;;;4.70;2.60;;;24.60;66.70;;;;;;5016891;28;20735;-95
2022/08/02 08:45:59;;;;;;;10.10;3.83;;;24.70;66.80;;;;;;5016617;28;20197;-92
2022/08/02 08:48:38;;;;;;;11.10;4.50;;;24.80;66.80;;;;;;5012430;28;20205;-92
2022/08/02 08:51:19;;;;;;;9.90;4.47;;;24.90;66.40;;;;;;4994190;28;20194;-92
2022/08/02 08:53:49;;;;;;;5.53;2.97;;;25.00;66.00;;;;;;5004759;28;20570;-93
2022/08/02 08:56:41;;;;;;;11.37;5.03;;;25.20;66.20;;;;;;5011441;28;20225;-95
2022/08/02 08:59:13;;;;;;;10.20;3.90;;;25.30;65.60;;;;;;4969381;28;20215;-91
2022/08/02 09:01:40;;;;;;;7.73;3.77;;;25.50;65.30;;;;;;4968096;28;21468;-94
2022/08/02 09:04:07;;;;;;;6.83;3.37;;;25.60;64.90;;;;;;4967502;28;20234;-89
2022/08/02 09:06:44;;;;;;;7.43;3.43;;;25.80;64.90;;;;;;4988351;28;20217;-92
2022/08/02 09:09:26;;;;;;;6.73;3.40;;;26.00;63.70;;;;;;4976225;28;20203;-93
2022/08/02 09:12:13;;;;;;;6.37;2.50;;;26.20;62.50;;;;;;4973658;28;20206;-91
2022/08/02 09:14:43;;;;;;;6.83;2.67;;;26.30;61.30;;;;;;4971568;28;20230;-91
2022/08/02 09:17:12;;;;;;;16.43;6.63;;;26.40;61.60;;;;;;4988058;22;20230;-94
2022/08/02 09:19:42;;;;;;;7.00;3.40;;;26.60;61.40;;;;;;5032928;28;20542;-93
2022/08/02 09:22:11;;;;;;;8.07;3.50;;;26.70;61.20;;;;;;5034187;28;20197;-92
2022/08/02 09:24:48;;;;;;;9.37;3.80;;;26.80;61.20;;;;;;5047811;28;20232;-89
2022/08/02 09:27:17;;;;;;;11.07;3.47;;;26.90;60.60;;;;;;5028321;22;20745;-90
2022/08/02 09:33:16;;;;;;;6.00;3.30;;;27.00;60.00;;;;;;5041719;22;20236;-93
2022/08/02 09:36:07;;;;;;;9.47;4.13;;;27.10;60.30;;;;;;5233201;22;20237;-92
2022/08/02 09:38:38;;;;;;;4.93;2.43;;;27.10;60.10;;;;;;4998130;28;20214;-93
2022/08/02 09:41:05;;;;;;;7.33;3.60;;;27.20;59.20;;;;;;5012056;28;20212;-94
2022/08/02 09:43:40;;;;;;;13.17;4.90;;;27.20;59.80;;;;;;5007579;28;20312;-91
2022/08/02 09:46:15;;;;;;;10.50;3.93;;;27.30;59.50;;;;;;5011462;28;20234;-91
2022/08/02 09:49:02;;;;;;;10.60;4.63;;;27.40;59.40;;;;;;5010546;28;20247;-91
2022/08/02 09:54:37;;;;;;;8.37;3.43;;;27.60;59.00;;;;;;5012768;28;20953;-92
2022/08/02 09:57:04;;;;;;;8.50;3.03;;;27.80;59.30;;;;;;5020063;28;20292;-91
2022/08/02 09:59:31;;;;;;;7.87;3.63;;;27.90;58.60;;;;;;5019144;22;20241;-93
2022/08/02 10:02:01;;;;;;;14.27;4.83;;;28.00;58.10;;;;;;5009351;28;20201;-91
2022/08/02 10:04:32;;;;;;;8.13;3.90;;;28.20;57.80;;;;;;5007466;28;20231;-91
2022/08/02 10:09:44;;;;;;;5.40;2.73;;;28.40;57.50;;;;;;4999079;28;20202;-95
2022/08/02 10:12:17;;;;;;;6.33;3.20;;;28.60;57.60;;;;;;5000171;28;20315;-96
2022/08/02 10:14:50;;;;;;;11.20;4.53;;;28.70;57.50;;;;;;5021037;28;20205;-94
2022/08/02 10:17:19;;;;;;;7.83;3.33;;;28.90;57.60;;;;;;5004184;28;20268;-94
2022/08/02 10:19:48;;;;;;;8.53;3.90;;;29.00;57.40;;;;;;5001446;28;20655;-94
2022/08/02 10:22:17;;;;;;;4.90;2.80;;;29.20;57.40;;;;;;5002236;28;20221;-93
2022/08/02 10:24:46;;;;;;;9.43;3.77;;;29.30;57.30;;;;;;5010260;28;20237;-93
2022/08/02 10:28:05;;;;;;;8.03;3.30;;;29.50;56.80;;;;;;5024525;28;20259;-93
2022/08/02 10:30:33;;;;;;;6.13;3.17;;;29.70;56.20;;;;;;4884068;28;20210;-93
2022/08/02 10:33:25;;;;;;;6.67;2.67;;;29.80;56.70;;;;;;4935448;28;20208;-93
2022/08/02 10:35:59;;;;;;;4.07;2.00;;;30.00;55.90;;;;;;4952617;29;20246;-93
2022/08/02 10:38:28;;;;;;;5.83;3.10;;;30.10;56.70;;;;;;4973418;28;20205;-94
2022/08/02 10:40:56;;;;;;;4.03;1.90;;;30.30;56.30;;;;;;5015160;28;20201;-92
2022/08/02 10:43:49;;;;;;;6.33;2.83;;;30.40;56.20;;;;;;5014289;28;20252;-93
2022/08/02 10:46:40;;;;;;;13.50;6.30;;;30.60;56.00;;;;;;4949354;28;20204;-92
2022/08/02 10:49:11;;;;;;;11.20;5.60;;;30.80;56.10;;;;;;5007049;28;20530;-94
2022/08/02 10:52:09;;;;;;;9.65;4.20;;;31.00;55.90;;;;;;5006445;28;20662;-94
2022/08/02 10:57:34;;;;;;;7.78;4.05;;;31.30;55.10;;;;;;5043187;23;20247;-96
2022/08/02 11:00:09;;;;;;;14.82;5.00;;;31.50;54.60;;;;;;5024315;28;20208;-91
2022/08/02 11:02:42;;;;;;;4.55;2.45;;;31.60;54.40;;;;;;5027657;28;20211;-93
2022/08/02 11:05:15;;;;;;;8.50;3.55;;;31.70;54.00;;;;;;5026421;28;20629;-93
2022/08/02 11:07:46;;;;;;;5.95;3.03;;;31.70;54.10;;;;;;5025430;28;20401;-94
2022/08/02 11:10:36;;;;;;;8.43;3.95;;;31.80;53.80;;;;;;5026001;28;20883;-94
2022/08/02 11:13:10;;;;;;;7.10;3.13;;;31.80;52.70;;;;;;5028331;28;20289;-95
2022/08/02 11:15:59;;;;;;;8.18;3.00;;;31.90;53.20;;;;;;5026784;28;20251;-94
2022/08/02 11:19:00;;;;;;;11.20;4.60;;;31.90;52.80;;;;;;5010503;28;20205;-93
2022/08/02 11:21:29;;;;;;;6.75;2.75;;;31.90;52.60;;;;;;5003345;28;20670;-93
2022/08/02 11:24:26;;;;;;;11.85;5.13;;;32.00;53.10;;;;;;5020343;23;21055;-93
2022/08/02 11:26:54;;;;;;;5.40;2.80;;;32.00;52.70;;;;;;5031350;28;20228;-93
2022/08/02 11:29:41;;;;;;;3.45;1.77;;;32.10;53.00;;;;;;5032243;28;20201;-95
2022/08/02 11:32:09;;;;;;;8.45;4.15;;;32.10;52.50;;;;;;5026973;28;20259;-94
2022/08/02 11:34:39;;;;;;;8.70;3.90;;;32.10;52.80;;;;;;5030455;28;20688;-95
2022/08/02 11:37:32;;;;;;;8.07;3.72;;;32.20;52.50;;;;;;5012870;28;20238;-94
2022/08/02 11:40:06;;;;;;;16.80;5.60;;;32.30;52.00;;;;;;5025384;28;20205;-95
2022/08/02 11:42:34;;;;;;;8.80;3.65;;;32.30;51.90;;;;;;5032536;28;20208;-94
2022/08/02 11:45:04;;;;;;;7.63;3.83;;;32.30;51.80;;;;;;5041324;28;20212;-94
2022/08/02 11:50:39;;;;;;;8.15;4.10;;;32.40;51.70;;;;;;5027366;22;20243;-94
2022/08/02 11:53:19;;;;;;;10.82;4.25;;;32.40;50.70;;;;;;5020223;28;20209;-94
2022/08/02 11:58:28;;;;;;;7.50;3.28;;;32.50;51.20;;;;;;5022349;28;20209;-92
2022/08/02 12:00:58;;;;;;;6.93;3.35;;;32.50;50.70;;;;;;5015718;28;20259;-92
2022/08/02 12:03:28;;;;;;;9.43;3.65;;;32.50;50.80;;;;;;5033735;28;20185;-94
2022/08/02 12:06:04;;;;;;;2.33;1.67;;;32.50;51.20;;;;;;5031321;28;20704;-94
2022/08/02 12:08:37;;;;;;;4.72;2.45;;;32.50;51.00;;;;;;5017417;28;20201;-94
2022/08/02 12:11:07;;;;;;;6.57;2.60;;;32.50;50.80;;;;;;5016765;28;20712;-92
2022/08/02 12:13:47;;;;;;;7.72;3.53;;;32.60;50.80;;;;;;5012706;28;20263;-93
2022/08/02 12:22:18;;;;;;;6.82;3.00;;;32.60;50.80;;;;;;5009773;28;20212;-94
2022/08/02 12:24:48;;;;;;;6.05;2.50;;;32.70;50.60;;;;;;5010946;28;20228;-92
2022/08/02 12:27:40;;;;;;;5.35;2.83;;;32.80;50.90;;;;;;5013207;28;20670;-93
2022/08/02 12:30:15;;;;;;;3.95;2.38;;;32.90;50.80;;;;;;5011083;28;20732;-94
2022/08/02 12:32:45;;;;;;;5.80;3.00;;;33.00;51.00;;;;;;5010617;28;20271;-94
2022/08/02 12:35:16;;;;;;;8.40;3.72;;;33.00;50.90;;;;;;5003440;28;20201;-93
2022/08/02 12:38:14;;;;;;;10.60;4.80;;;33.20;50.60;;;;;;5008907;28;20346;-92
2022/08/02 12:40:43;;;;;;;7.10;3.38;;;33.30;50.50;;;;;;5007487;28;20641;-93
2022/08/02 12:43:23;;;;;;;7.32;3.38;;;33.40;50.30;;;;;;5008385;28;20201;-93
2022/08/02 12:45:53;;;;;;;5.53;2.88;;;33.40;49.70;;;;;;4993590;28;20625;-91
2022/08/02 12:48:33;;;;;;;8.00;3.60;;;33.50;49.60;;;;;;5006250;28;20217;-92
2022/08/02 12:51:20;;;;;;;14.02;5.20;;;33.50;49.50;;;;;;4997170;28;20243;-93
2022/08/02 12:53:49;;;;;;;3.95;2.15;;;33.50;49.80;;;;;;5010413;28;20263;-91
2022/08/02 12:56:30;;;;;;;9.98;3.88;;;33.60;49.70;;;;;;5030733;28;20197;-91
2022/08/02 12:58:59;;;;;;;15.27;8.15;;;33.70;49.20;;;;;;5025751;22;20220;-92
2022/08/02 13:01:44;;;;;;;5.80;2.40;;;33.70;49.50;;;;;;5014968;28;20232;-91
2022/08/02 13:04:12;;;;;;;6.18;2.58;;;33.80;48.90;;;;;;5013232;28;20263;-91
2022/08/02 13:06:40;;;;;;;8.75;4.15;;;33.80;49.10;;;;;;5009923;28;20236;-92
2022/08/02 13:09:45;;;;;;;8.38;4.10;;;33.90;48.90;;;;;;5007722;28;20229;-91
2022/08/02 13:12:13;;;;;;;6.93;2.85;;;33.90;48.50;;;;;;4989488;28;20270;-93
2022/08/02 13:14:46;;;;;;;6.38;3.15;;;33.90;48.90;;;;;;5002509;28;20268;-93
2022/08/02 13:17:13;;;;;;;8.82;3.78;;;33.90;48.30;;;;;;5008291;28;20205;-90
2022/08/02 13:19:41;;;;;;;8.15;3.83;;;33.90;48.70;;;;;;5008216;28;20210;-92
2022/08/02 13:22:10;;;;;;;7.78;3.20;;;33.90;48.50;;;;;;5008758;28;20301;-90
2022/08/02 13:24:38;;;;;;;8.13;3.80;;;33.90;48.20;;;;;;5006098;28;20946;-92
2022/08/02 13:27:12;;;;;;;8.80;2.60;;;34.00;48.40;;;;;;5006481;28;20290;-89
2022/08/02 13:29:42;;;;;;;8.40;3.85;;;34.00;48.40;;;;;;5003621;28;20212;-94
2022/08/02 13:32:09;;;;;;;6.25;2.92;;;34.10;48.10;;;;;;5008647;28;20205;-92
2022/08/02 13:34:38;;;;;;;5.35;3.15;;;34.10;47.80;;;;;;5007042;28;20343;-94
2022/08/02 13:37:06;;;;;;;6.25;2.90;;;34.20;47.50;;;;;;5009014;28;20225;-91
2022/08/02 13:39:33;;;;;;;6.75;3.13;;;34.20;47.70;;;;;;5007985;28;20194;-92
2022/08/02 13:42:02;;;;;;;6.28;3.03;;;34.20;47.10;;;;;;5009468;28;20240;-90
2022/08/02 13:44:29;;;;;;;8.70;3.95;;;34.30;47.20;;;;;;5012542;28;20224;-89
2022/08/02 13:46:58;;;;;;;8.05;3.75;;;34.30;47.20;;;;;;5011995;28;20213;-93
2022/08/02 13:52:24;;;;;;;8.70;4.07;;;34.40;46.50;;;;;;5009521;22;20238;-91
2022/08/02 13:54:51;;;;;;;6.18;3.25;;;34.40;47.20;;;;;;5007298;28;20263;-93
2022/08/02 13:57:18;;;;;;;9.55;4.38;;;34.50;47.30;;;;;;4994676;28;20214;-90
2022/08/02 13:59:45;;;;;;;6.22;2.00;;;34.50;47.10;;;;;;4994183;28;20202;-89
2022/08/02 14:02:16;;;;;;;5.60;2.67;;;34.60;46.70;;;;;;4993404;28;20203;-91
2022/08/02 14:04:51;;;;;;;6.78;3.08;;;34.60;46.40;;;;;;4986790;28;20202;-91
2022/08/02 14:07:53;;;;;;;9.10;3.10;;;34.60;46.60;;;;;;5037421;23;20237;-87
2022/08/02 14:10:21;;;;;;;7.22;3.08;;;34.60;45.30;;;;;;5004141;28;20232;-91
2022/08/02 14:12:50;;;;;;;7.57;3.88;;;34.60;45.90;;;;;;5008723;28;20201;-91
2022/08/02 14:15:30;;;;;;;10.13;5.07;;;34.70;46.10;;;;;;5003780;28;20209;-90
2022/08/02 14:18:21;;;;;;;8.70;3.75;;;34.70;45.20;;;;;;5002640;28;20209;-91
2022/08/02 14:20:56;;;;;;;8.80;4.30;;;34.70;45.50;;;;;;5014788;28;20218;-92
2022/08/02 14:23:29;;;;;;;2.20;1.13;;;34.80;45.70;;;;;;5013831;28;20217;-91
2022/08/02 14:25:56;;;;;;;5.05;2.65;;;34.80;46.00;;;;;;5026490;23;20240;-90
2022/08/02 14:28:44;;;;;;;5.22;3.03;;;34.80;46.00;;;;;;5027769;28;20275;-90
2022/08/02 14:31:13;;;;;;;5.68;2.30;;;34.90;45.40;;;;;;5026494;28;20653;-92
2022/08/02 14:33:42;;;;;;;3.72;2.10;;;34.90;45.60;;;;;;5026689;28;20259;-90
2022/08/02 14:36:09;;;;;;;8.70;4.00;;;34.90;45.50;;;;;;5026184;28;20610;-91
2022/08/02 14:38:37;;;;;;;5.13;2.85;;;35.00;46.00;;;;;;5042324;28;20208;-88
2022/08/02 14:41:04;;;;;;;5.82;3.15;;;35.10;45.70;;;;;;5039073;28;20189;-89
2022/08/02 14:46:16;;;;;;;6.35;3.05;;;35.10;45.00;;;;;;5031805;28;20265;-89
2022/08/02 14:49:06;;;;;;;10.05;3.08;;;35.10;45.00;;;;;;5029789;28;20263;-90
2022/08/02 14:51:35;;;;;;;6.18;3.15;;;35.10;44.60;;;;;;5028846;28;20731;-93
2022/08/02 14:54:04;;;;;;;7.30;2.72;;;35.00;44.40;;;;;;5030550;28;20201;-90
2022/08/02 14:56:32;;;;;;;6.80;3.40;;;35.00;44.90;;;;;;5029788;28;20209;-91